Station: Badgingarra  

  Atmospheric Gas Attenuation - ITU Rec 676-11   ----------------- dB/100km -----------------
Date Time Temp RH % AH g/m3 Dew Point Wind Direction Speed kph Gust kph Barometer mB Rainfall Since 9am 24GHz 47GHz 76GHz 122GHz 134GHz 241GHz
05/09 10:00 14.5 76 9.45 10.3 15 20 1013.1 0 21.4 27.1 42.9 112.7 108.8 375.0
05/09 09:50 13.9 75 8.99 9.5 15 20 1013.1 0 20.4 26.5 41.3 108.5 103.4 356.2
05/09 09:40 13.5 78 9.12 9.7 15 19 1013.1 0 20.7 26.8 42.1 110.5 105.7 364.1
05/09 09:30 13.2 78 8.96 9.5 13 17 1013.1 0 20.4 26.7 41.6 109.1 104.0 357.9
05/09 09:20 13.1 81 9.24 9.9 13 19 1013.1 0 21.0 27.2 42.8 112.4 107.9 371.7
05/09 09:10 12.9 80 9.02 9.5 15 20 1013.1 0 20.5 26.8 42.0 110.2 105.2 362.2
05/09 09:00 12.6 82 9.07 9.6 13 17 1013.1 0 20.7 27.0 42.3 111.2 106.3 365.9
05/09 08:50 12.1 83 8.9 9.3 11 15 1013.1 0 20.3 26.9 41.9 110.0 104.7 360.2
05/09 08:40 11.9 84 8.9 9.3 11 15 1013.1 0 20.3 26.9 42.0 110.3 104.9 361.1
05/09 08:30 11.6 84 8.73 9 11 13 1013.1 0 20.0 26.8 41.5 108.8 103.0 354.3
05/09 08:20 11.4 83 8.52 8.6 9 13 1013.1 0 19.5 26.5 40.7 106.8 100.4 345.2
05/09 08:10 11.1 83 8.36 8.3 7 9 1013.1 0 19.2 26.3 40.2 105.4 98.6 338.9
05/09 08:00 10.9 83 8.26 8.1 6 9 1013.1 0 19.0 26.2 39.9 104.6 97.5 335.0
05/09 07:50 10.5 81 7.86 7.4 6 9 1013.1 0 18.2 25.6 38.4 100.7 92.6 317.7
05/09 07:40 10.3 83 7.95 7.5 7 9 1013.1 0 18.4 25.8 38.9 102.0 94.1 322.8
05/09 07:30 9.8 84 7.8 7.2 7 11 1013.1 0 18.1 25.7 38.5 101.0 92.6 317.7
05/09 07:20 9.9 83 7.75 7.2 7 9 1013.1 0 17.9 25.6 38.3 100.3 91.8 315.0
05/09 07:10 9.9 84 7.85 7.3 6 9 1013.1 0 18.2 25.8 38.7 101.4 93.2 319.7
05/09 07:00 9.4 86 7.78 7.2 4 6 1013.1 0 18.0 25.8 38.6 101.3 92.8 318.4
05/09 06:50 9.1 86 7.63 6.9 7 9 1013.1 0 17.7 25.7 38.2 100.0 91.2 312.5
05/09 06:40 9.3 84 7.55 6.7 6 9 1013.1 0 17.5 25.5 37.7 98.9 89.8 307.9
05/09 06:30 8.6 85 7.31 6.2 2 4 1013.1 0 17.1 25.3 37.1 97.1 87.4 299.3
05/09 06:20 8.7 82 7.09 5.9 2 4 1013.1 0 16.6 24.9 36.1 94.6 84.3 288.5
05/09 06:10 8.7 82 7.09 5.8 4 4 1013.1 0 16.6 24.9 36.1 94.6 84.3 288.5
05/09 06:00 8.9 83 7.27 6.2 0 0 1013.1 0 17.0 25.1 36.8 96.3 86.5 296.2
05/09 05:50 9.1 84 7.46 6.5 0 0 1013.1 0 17.4 25.4 37.5 98.2 88.9 304.4
05/09 05:40 8.8 85 7.4 6.4 4 6 1013.1 0 17.2 25.4 37.4 97.9 88.4 302.8
05/09 05:30 9 85 7.5 6.6 2 6 1013.1 0 17.5 25.5 37.7 98.7 89.5 306.7
05/09 05:20 9.2 84 7.5 6.6 6 7 1013.1 0 17.4 25.4 37.6 98.5 89.3 305.9
05/09 05:10 9.2 85 7.59 6.9 4 4 1013.1 0 17.6 25.6 37.9 99.5 90.5 310.2
05/09 05:00 9.1 86 7.63 6.9 4 6 1013.1 0 17.7 25.7 38.2 100.0 91.2 312.5
05/09 04:50 9 85 7.5 6.6 4 6 1013.1 0 17.5 25.5 37.7 98.7 89.5 306.7
05/09 04:40 9.1 83 7.37 6.4 4 6 1013.1 0 17.2 25.2 37.1 97.2 87.6 300.2
05/09 04:30 9.7 83 7.65 7 6 7 1013.1 0 17.7 25.5 37.9 99.5 90.7 311.0
05/09 04:20 10.1 83 7.85 7.3 4 7 1013.1 0 18.2 25.7 38.6 101.2 92.9 318.9
05/09 04:10 10.3 83 7.95 7.5 6 7 1013.1 0 18.4 25.8 38.9 102.0 94.1 322.8
05/09 04:00 10.6 82 8.01 7.7 6 7 1013.1 0 18.5 25.9 39.0 102.3 94.5 324.4
05/09 03:50 10.5 81 7.86 7.4 7 9 1013.1 0 18.2 25.6 38.4 100.7 92.6 317.7
05/09 03:40 11 79 7.91 7.5 4 6 1013.1 0 18.2 25.6 38.4 100.6 92.7 318.1
05/09 03:30 11.1 79 7.96 7.6 2 4 1013.1 0 18.3 25.6 38.5 101.1 93.2 320.0
05/09 03:20 11.2 79 8.01 7.8 2 4 1013.1 0 18.4 25.7 38.7 101.5 93.8 321.9
05/09 03:10 11.7 75 7.85 7.4 2 7 1013.1 0 18.1 25.3 37.8 99.1 91.0 312.4
05/09 03:00 12.4 71 7.76 7.3 6 13 1013.1 0 17.9 24.9 37.1 97.3 89.0 305.6
05/09 02:50 10.8 83 8.21 8 0 0 1013.1 0 18.9 26.1 39.7 104.2 97.0 333.0
05/09 02:40 10.7 84 8.25 8.1 2 4 1013.1 0 19.0 26.2 39.9 104.8 97.6 335.4
05/09 02:30 10.8 84 8.3 8.2 4 7 1013.1 0 19.1 26.3 40.1 105.2 98.2 337.3
05/09 02:20 11.1 81 8.16 7.9 0 0 1013.1 0 18.8 26.0 39.4 103.2 95.9 329.4
05/09 02:10 10.9 82 8.16 8 4 6 1013.1 0 18.8 26.0 39.5 103.5 96.2 330.2
05/09 02:00 11.3 80 8.16 8 6 9 1013.1 0 18.8 25.9 39.3 103.0 95.7 328.6
05/09 01:50 11.2 80 8.11 7.9 4 6 1013.1 0 18.7 25.8 39.1 102.6 95.1 326.6
05/09 01:40 10.6 86 8.4 8.4 2 6 1013.1 0 19.3 26.5 40.6 106.6 99.8 343.0
05/09 01:30 10.1 87 8.23 8 2 6 1013.1 0 19.0 26.4 40.1 105.3 98.1 337.0
05/09 01:20 9.7 91 8.39 8.3 2 6 1013.1 0 19.3 26.8 41.0 107.7 100.8 346.5
05/09 01:10 9.1 91 8.08 7.7 0 2 1013.1 0 18.7 26.4 40.0 105.0 97.3 334.1
05/09 01:00 9.3 90 8.09 7.7 0 2 1013.1 0 18.7 26.4 40.0 104.9 97.2 333.7
05/09 00:50 9.1 90 7.99 7.5 0 0 1013.1 0 18.5 26.3 39.7 104.0 96.1 329.7
05/09 00:40 9.1 85 7.54 6.8 0 0 1013.1 0 17.5 25.5 37.8 99.0 89.9 308.2
05/09 00:30 9.4 90 8.14 7.8 0 0 1013.1 0 18.8 26.4 40.1 105.3 97.8 335.7
05/09 00:20 9 90 7.94 7.4 0 0 1013.1 0 18.4 26.2 39.5 103.6 95.5 327.8
05/09 00:10 8.8 88 7.66 7 0 0 1013.1 0 17.8 25.8 38.4 100.7 91.9 315.1
05/09 00:00 8.6 89 7.65 6.9 0 0 1013.1 0 17.8 25.8 38.5 100.9 92.0 315.5
04/09 23:50 9 91 8.03 7.6 0 0 1013.1 0 18.6 26.4 39.9 104.6 96.8 332.1
04/09 23:40 8.5 90 7.69 7 0 0 1013.1 0 17.9 25.9 38.7 101.5 92.7 317.8
04/09 23:30 8.7 92 7.96 7.5 0 0 1013.1 0 18.5 26.3 39.7 104.2 96.2 330.0
04/09 23:20 7.3 89 7.04 5.6 0 0 1013.1 0 16.5 25.2 36.6 95.8 85.2 291.4
04/09 23:10 7.4 89 7.08 5.7 0 0 1013.1 0 16.6 25.2 36.7 96.1 85.6 292.9
04/09 23:00 7.6 88 7.09 5.7 0 0 1013.1 0 16.6 25.2 36.6 96.0 85.5 292.6
04/09 22:50 8.1 89 7.41 6.4 0 0 1013.1 0 17.3 25.6 37.7 98.9 89.3 306.0
04/09 22:40 8.3 88 7.42 6.4 0 0 1013.1 0 17.3 25.5 37.7 98.7 89.2 305.7
04/09 22:30 8.4 88 7.47 6.5 2 6 1013.1 0 17.4 25.6 37.8 99.1 89.8 307.6
04/09 22:20 8.8 89 7.75 7.1 0 4 1013.1 0 18.0 25.9 38.8 101.7 93.2 319.4
04/09 22:10 8.7 90 7.79 7.2 4 4 1013.1 0 18.1 26.0 39.0 102.3 93.8 321.8
04/09 22:00 8.2 90 7.54 6.7 4 6 1013.1 0 17.6 25.8 38.2 100.2 91.0 311.8
04/09 21:50 7.9 90 7.4 6.3 6 6 1013.1 0 17.3 25.6 37.8 99.0 89.4 306.3
04/09 21:40 7.8 90 7.35 6.3 9 9 1013.1 0 17.2 25.6 37.6 98.6 88.9 304.3
04/09 21:30 7.8 90 7.35 6.3 7 9 1013.1 0 17.2 25.6 37.6 98.6 88.9 304.3
04/09 21:20 8 89 7.36 6.3 7 9 1013.1 0 17.2 25.5 37.6 98.4 88.8 304.0
04/09 21:10 8.2 90 7.54 6.6 7 7 1013.1 0 17.6 25.8 38.2 100.2 91.0 311.8
04/09 21:00 8.5 90 7.69 7 9 9 1013.1 0 17.9 25.9 38.7 101.5 92.7 317.8
04/09 20:50 8.6 90 7.74 7 7 7 1013.1 0 18.0 26.0 38.9 101.9 93.3 319.8
04/09 20:40 8.7 89 7.7 7 9 9 1013.1 0 17.9 25.9 38.6 101.3 92.6 317.5
04/09 20:30 8.9 88 7.71 7 11 11 1013.1 0 17.9 25.9 38.6 101.2 92.5 317.1
04/09 20:20 9.3 88 7.91 7.4 11 11 1013.1 0 18.3 26.1 39.2 102.9 94.7 325.1
04/09 20:10 9.2 89 7.95 7.5 13 13 1013.1 0 18.4 26.2 39.4 103.4 95.4 327.4
04/09 20:00 8.8 91 7.92 7.4 11 11 1013.1 0 18.4 26.2 39.5 103.6 95.5 327.6
04/09 19:50 8.8 90 7.84 7.3 11 13 1013.1 0 18.2 26.1 39.2 102.7 94.4 323.8
04/09 19:40 9.2 89 7.95 7.5 11 13 1013.1 0 18.4 26.2 39.4 103.4 95.4 327.4
04/09 19:30 9.5 88 8.01 7.6 11 13 1013.1 0 18.5 26.2 39.5 103.7 95.9 329.0
04/09 19:20 10.1 88 8.32 8.2 9 11 1013.1 0 19.2 26.5 40.5 106.4 99.4 341.3
04/09 19:10 10.3 87 8.33 8.2 9 13 1013.1 0 19.2 26.5 40.5 106.2 99.2 340.9
04/09 19:00 10.6 86 8.4 8.4 11 13 1013.1 0 19.3 26.5 40.6 106.6 99.8 343.0
04/09 18:50 11 85 8.51 8.6 9 13 1013.1 0 19.5 26.6 40.9 107.2 100.8 346.5
04/09 18:40 11.5 82 8.47 8.5 13 13 1013.1 0 19.4 26.4 40.4 106.1 99.6 342.4
04/09 18:30 11.8 81 8.53 8.6 11 13 1013.1 0 19.5 26.4 40.5 106.4 100.0 343.9
04/09 18:20 12.4 80 8.74 9.1 13 15 1013.1 0 20.0 26.5 41.1 107.8 102.1 351.2
04/09 18:10 12.8 78 8.74 9.1 11 13 1013.1 0 19.9 26.4 40.9 107.3 101.5 349.4
04/09 18:00 13.4 74 8.6 8.9 11 13 1013.1 0 19.6 26.0 40.0 105.0 98.9 340.2
04/09 17:50 14.1 71 8.62 8.9 11 15 1013.1 0 19.6 25.8 39.7 104.2 98.3 338.1
04/09 17:40 14.9 67 8.54 8.8 13 15 1013.1 0 19.4 25.5 39.0 102.4 96.2 331.0
04/09 17:30 15.6 64 8.51 8.8 15 17 1013.1 0 19.3 25.2 38.5 101.1 95.0 326.8

Last Refresh: 05-Sep-2026 11:47:55

Bureau of Meteorology